createdAt,value
2023-03-14T00:02:07.590Z,24.10
2023-03-14T00:05:13.788Z,23.60
2023-03-14T00:08:15.426Z,23.30
2023-03-14T00:14:22.227Z,22.40
2023-03-14T00:17:24.018Z,23.40
2023-03-14T00:20:25.609Z,22.00
2023-03-14T00:26:29.688Z,21.30
2023-03-14T00:29:31.370Z,21.90
2023-03-14T00:32:33.039Z,24.00
2023-03-14T00:38:36.736Z,20.20
2023-03-14T00:41:38.435Z,19.50
2023-03-14T00:44:40.091Z,19.50
2023-03-14T00:50:43.226Z,17.00
2023-03-14T00:56:46.707Z,15.60
2023-03-14T00:59:48.307Z,12.90
2023-03-14T01:02:50.074Z,17.60
2023-03-14T01:05:51.814Z,17.60
2023-03-14T01:08:54.620Z,21.40
2023-03-14T01:11:56.138Z,14.60
2023-03-14T01:14:58.200Z,22.60
2023-03-14T01:17:59.901Z,18.70
2023-03-14T01:21:03.573Z,18.90
2023-03-14T01:24:07.594Z,18.80
2023-03-14T01:27:09.150Z,19.70
2023-03-14T01:30:12.364Z,18.20
2023-03-14T01:33:14.104Z,19.20
2023-03-14T01:36:15.773Z,20.20
2023-03-14T01:39:17.402Z,18.40
2023-03-14T01:46:05.894Z,18.20
2023-03-14T01:49:33.361Z,17.00
2023-03-14T01:52:39.427Z,17.40
2023-03-14T01:55:41.198Z,19.60
2023-03-14T01:58:45.997Z,17.20
2023-03-14T02:01:48.583Z,18.40
2023-03-14T02:05:11.888Z,22.30
2023-03-14T02:08:20.193Z,17.20
2023-03-14T02:11:22.312Z,19.30
2023-03-14T02:14:31.984Z,21.60
2023-03-14T02:17:34.302Z,19.20
2023-03-14T02:20:54.910Z,21.10
2023-03-14T02:24:19.968Z,16.20
2023-03-14T02:27:22.127Z,17.40
2023-03-14T02:30:27.300Z,18.70
2023-03-14T02:33:29.077Z,16.90
2023-03-14T02:36:31.217Z,17.40
2023-03-14T02:39:44.659Z,17.20
2023-03-14T02:42:46.362Z,17.90
2023-03-14T02:48:55.124Z,17.50
2023-03-14T02:51:56.801Z,20.10
2023-03-14T02:57:59.905Z,16.30
2023-03-14T03:04:03.097Z,16.90
2023-03-14T03:07:04.696Z,17.40
2023-03-14T03:10:06.981Z,16.60
2023-03-14T03:13:08.565Z,17.20
2023-03-14T03:16:10.186Z,15.20
2023-03-14T03:22:13.286Z,17.00
2023-03-14T03:28:16.441Z,16.80
2023-03-14T03:34:19.591Z,16.70
2023-03-14T03:37:21.225Z,16.50
2023-03-14T03:40:22.896Z,15.80
2023-03-14T03:43:24.429Z,24.00
2023-03-14T03:46:26.227Z,15.20
2023-03-14T03:49:32.306Z,17.50
2023-03-14T03:52:33.886Z,17.60
2023-03-14T03:55:35.661Z,18.00
2023-03-14T03:58:37.243Z,16.50
2023-03-14T04:01:38.854Z,21.10
2023-03-14T04:04:40.621Z,15.10
2023-03-14T04:07:42.344Z,15.50
2023-03-14T04:10:43.896Z,17.20
2023-03-14T04:13:45.537Z,18.90
2023-03-14T04:16:47.173Z,19.40
2023-03-14T04:19:51.952Z,20.70
2023-03-14T04:25:55.058Z,18.50
2023-03-14T04:28:56.678Z,21.10
2023-03-14T04:31:58.786Z,17.80
2023-03-14T04:35:00.411Z,19.40
2023-03-14T04:38:02.081Z,21.00
2023-03-14T04:44:05.951Z,17.40
2023-03-14T04:50:10.233Z,14.10
2023-03-14T04:53:11.895Z,18.90
2023-03-14T04:56:13.559Z,19.20
2023-03-14T05:02:16.785Z,20.60
2023-03-14T05:08:20.019Z,21.00
2023-03-14T05:14:23.284Z,22.00
2023-03-14T05:17:24.925Z,23.10
2023-03-14T05:20:26.580Z,19.70
2023-03-14T05:23:28.783Z,21.20
2023-03-14T05:29:31.970Z,24.40
2023-03-14T05:35:35.424Z,24.10
2023-03-14T05:41:38.551Z,19.80
2023-03-14T05:44:40.147Z,21.20
2023-03-14T05:47:41.869Z,21.90
2023-03-14T05:53:45.165Z,21.90
2023-03-14T05:59:48.462Z,22.90
2023-03-14T06:05:51.902Z,21.70
2023-03-14T06:08:53.476Z,22.40
2023-03-14T06:14:56.731Z,22.00
2023-03-14T06:20:59.970Z,22.10
2023-03-14T06:24:01.576Z,21.60
2023-03-14T06:30:05.749Z,21.10
2023-03-14T06:33:07.645Z,17.70
2023-03-14T06:36:09.678Z,18.60
2023-03-14T06:39:11.354Z,18.70
2023-03-14T06:42:12.865Z,19.90
2023-03-14T06:48:16.303Z,19.50
2023-03-14T06:51:18.026Z,21.50
2023-03-14T06:54:19.589Z,20.60
2023-03-14T06:57:21.142Z,23.20
2023-03-14T07:00:23.009Z,18.80
2023-03-14T07:03:24.809Z,17.90
2023-03-14T07:06:26.371Z,17.60
2023-03-14T07:09:27.965Z,17.50
2023-03-14T07:12:29.601Z,16.50
2023-03-14T07:15:31.502Z,14.30
2023-03-14T07:18:33.758Z,21.90
2023-03-14T07:21:35.392Z,20.00
2023-03-14T07:24:36.968Z,12.10
2023-03-14T07:27:38.886Z,13.90
2023-03-14T07:30:40.496Z,27.60
2023-03-14T07:33:42.077Z,20.30
2023-03-14T07:36:43.701Z,15.30
2023-03-14T07:39:45.614Z,16.00
2023-03-14T07:42:47.203Z,17.30
2023-03-14T07:45:51.255Z,13.70
2023-03-14T07:48:53.203Z,14.20
2023-03-14T07:51:54.756Z,14.80
2023-03-14T07:54:56.304Z,14.90
2023-03-14T07:57:57.883Z,17.30
2023-03-14T08:00:59.851Z,19.00
2023-03-14T08:04:01.531Z,16.00
2023-03-14T08:07:03.199Z,19.20
2023-03-14T08:10:05.852Z,16.60
2023-03-14T08:13:07.623Z,14.20
2023-03-14T08:16:09.639Z,15.40
2023-03-14T08:19:11.254Z,17.90
2023-03-14T08:22:12.898Z,13.90
2023-03-14T08:25:14.705Z,17.70
2023-03-14T08:28:16.394Z,12.90
2023-03-14T08:31:18.319Z,14.20
2023-03-14T08:34:20.037Z,15.30
2023-03-14T08:37:26.831Z,14.10
2023-03-14T08:40:28.885Z,13.70
2023-03-14T08:43:30.712Z,14.60
2023-03-14T08:46:32.489Z,16.50
2023-03-14T08:49:34.220Z,14.10
2023-03-14T08:52:35.936Z,14.60
2023-03-14T08:55:37.512Z,14.20
2023-03-14T08:58:39.186Z,11.40
2023-03-14T09:01:40.907Z,14.50
2023-03-14T09:04:42.708Z,10.60
2023-03-14T09:07:44.394Z,14.80
2023-03-14T09:10:45.983Z,14.50
2023-03-14T09:13:47.577Z,14.80
2023-03-14T09:16:49.349Z,12.50
2023-03-14T09:19:51.036Z,14.40
2023-03-14T09:22:52.592Z,15.00
2023-03-14T09:26:01.074Z,11.90
2023-03-14T09:29:02.812Z,12.00
2023-03-14T09:32:04.602Z,14.30
2023-03-14T09:35:06.305Z,14.40
2023-03-14T09:38:07.997Z,14.50
2023-03-14T09:41:17.044Z,13.60
2023-03-14T09:44:28.393Z,10.90
2023-03-14T09:47:30.404Z,16.40
2023-03-14T09:50:38.574Z,13.50
2023-03-14T09:53:46.135Z,13.90
2023-03-14T09:56:48.093Z,12.30
2023-03-14T09:59:50.700Z,13.80
2023-03-14T10:02:55.568Z,13.00
2023-03-14T10:05:57.603Z,9.30
2023-03-14T10:08:59.404Z,14.20
2023-03-14T10:12:11.231Z,15.20
2023-03-14T10:15:14.684Z,11.40
2023-03-14T10:18:16.506Z,13.90
2023-03-14T10:21:28.645Z,17.60
2023-03-14T10:24:32.759Z,13.00
2023-03-14T10:27:36.384Z,18.70
2023-03-14T10:30:45.672Z,13.60
2023-03-14T10:34:05.672Z,14.90
2023-03-14T10:37:27.864Z,16.60
2023-03-14T10:40:33.351Z,15.50
2023-03-14T10:43:36.964Z,14.90
2023-03-14T10:46:38.627Z,17.10
2023-03-14T10:49:40.201Z,16.50
2023-03-14T10:53:01.478Z,16.20
2023-03-14T10:56:04.510Z,15.20
2023-03-14T10:59:14.787Z,18.50
2023-03-14T11:02:32.322Z,17.30
2023-03-14T11:05:58.495Z,16.30
2023-03-14T11:09:03.594Z,14.70
2023-03-14T11:12:18.492Z,16.30
2023-03-14T11:15:47.070Z,15.50
2023-03-14T11:18:54.749Z,14.40
2023-03-14T11:22:18.225Z,14.50
2023-03-14T11:25:41.389Z,14.60
2023-03-14T11:28:50.636Z,16.30
2023-03-14T11:31:56.967Z,18.30
2023-03-14T11:35:00.423Z,17.10
2023-03-14T11:38:04.888Z,17.10
2023-03-14T11:41:11.624Z,20.30
2023-03-14T11:44:19.568Z,14.70
2023-03-14T11:47:30.414Z,13.40
2023-03-14T11:50:32.730Z,15.60
2023-03-14T11:53:49.560Z,17.60
2023-03-14T11:56:58.729Z,14.00
2023-03-14T12:00:05.360Z,16.90
2023-03-14T12:03:15.974Z,16.10
2023-03-14T12:06:17.481Z,14.70
2023-03-14T12:09:21.525Z,19.30
2023-03-14T12:12:25.841Z,17.50
2023-03-14T12:15:27.549Z,14.20
2023-03-14T12:18:34.031Z,11.90
2023-03-14T12:21:48.184Z,13.00
2023-03-14T12:24:52.959Z,12.40
2023-03-14T12:27:57.180Z,18.90
2023-03-14T12:31:36.973Z,14.60
2023-03-14T12:34:43.495Z,13.70
2023-03-14T12:37:46.858Z,11.60
2023-03-14T12:41:17.641Z,10.50
2023-03-14T12:44:31.649Z,15.10
2023-03-14T12:47:33.158Z,17.40
2023-03-14T12:50:46.532Z,18.30
2023-03-14T12:54:03.741Z,12.70
2023-03-14T12:57:28.120Z,16.00
2023-03-14T13:00:39.057Z,16.80
2023-03-14T13:03:46.741Z,16.60
2023-03-14T13:06:48.313Z,14.00
2023-03-14T13:13:21.715Z,18.40
2023-03-14T13:16:24.155Z,12.40
2023-03-14T13:19:30.464Z,16.90
2023-03-14T13:22:34.771Z,18.20
2023-03-14T13:25:37.225Z,14.40
2023-03-14T13:28:38.914Z,14.40
2023-03-14T13:31:45.066Z,14.40
2023-03-14T13:34:46.781Z,14.30
2023-03-14T13:37:50.057Z,17.70
2023-03-14T13:40:56.012Z,21.10
2023-03-14T13:44:07.512Z,13.90
2023-03-14T13:47:27.377Z,17.60
2023-03-14T13:50:28.969Z,27.70
2023-03-14T13:53:30.728Z,27.10
2023-03-14T13:56:33.824Z,19.70
2023-03-14T13:59:36.223Z,22.00
2023-03-14T14:02:39.301Z,21.30
2023-03-14T14:05:41.421Z,22.40
2023-03-14T14:08:43.189Z,22.10
2023-03-14T14:12:14.262Z,18.40
2023-03-14T14:15:25.331Z,17.80
2023-03-14T14:18:28.248Z,23.50
2023-03-14T14:21:29.903Z,23.00
2023-03-14T14:24:32.937Z,20.90
2023-03-14T14:27:38.295Z,21.50
2023-03-14T14:30:39.920Z,25.50
2023-03-14T14:33:42.743Z,21.70
2023-03-14T14:36:45.799Z,23.70
2023-03-14T14:39:49.114Z,18.60
2023-03-14T14:42:51.382Z,18.90
2023-03-14T14:45:54.777Z,18.10
2023-03-14T14:49:07.453Z,17.10
2023-03-14T14:52:18.466Z,17.80
2023-03-14T14:55:21.006Z,14.60
2023-03-14T14:58:27.565Z,19.30
2023-03-14T15:01:35.477Z,13.30
2023-03-14T15:04:37.133Z,12.80
2023-03-14T15:07:38.629Z,16.40
2023-03-14T15:10:41.764Z,14.40
2023-03-14T15:13:44.957Z,18.70
2023-03-14T15:16:46.484Z,20.80
2023-03-14T15:19:48.392Z,16.60
2023-03-14T15:22:50.640Z,16.70
2023-03-14T15:25:55.850Z,19.00
2023-03-14T15:28:58.189Z,18.20
2023-03-14T15:31:59.990Z,23.50
2023-03-14T15:35:04.622Z,21.10
2023-03-14T15:38:06.465Z,21.40
2023-03-14T15:41:10.495Z,22.00
2023-03-14T15:44:12.134Z,21.30
2023-03-14T15:47:14.200Z,19.80
2023-03-14T15:50:16.656Z,24.30
2023-03-14T15:53:18.519Z,22.10
2023-03-14T15:56:21.031Z,19.30
2023-03-14T15:59:23.763Z,19.50
2023-03-14T16:02:25.386Z,27.70
2023-03-14T16:05:26.976Z,30.10
2023-03-14T16:08:28.547Z,21.90
2023-03-14T16:11:30.147Z,22.20
2023-03-14T16:14:31.922Z,22.40
2023-03-14T16:17:33.969Z,22.40
2023-03-14T16:20:47.142Z,22.40
2023-03-14T16:23:49.029Z,27.20
2023-03-14T16:26:50.632Z,26.00
2023-03-14T16:29:52.137Z,25.40
2023-03-14T16:32:53.698Z,20.90
2023-03-14T16:35:57.100Z,22.10
2023-03-14T16:38:58.786Z,20.90
2023-03-14T16:42:00.336Z,23.60
2023-03-14T16:45:02.008Z,27.50
2023-03-14T16:48:03.707Z,27.80
2023-03-14T16:51:05.468Z,25.90
2023-03-14T16:54:07.087Z,25.40
2023-03-14T16:57:09.041Z,24.70
2023-03-14T17:00:11.511Z,26.20
2023-03-14T17:03:14.126Z,27.30
2023-03-14T17:10:05.948Z,31.50
2023-03-14T17:13:07.763Z,29.20
2023-03-14T17:16:09.920Z,25.40
2023-03-14T17:19:11.547Z,21.50
2023-03-14T17:22:23.300Z,23.40
2023-03-14T17:25:25.272Z,22.10
2023-03-14T17:28:27.978Z,22.30
2023-03-14T17:31:29.693Z,21.70
2023-03-14T17:34:31.356Z,22.80
2023-03-14T17:37:33.059Z,19.80
2023-03-14T17:40:34.701Z,20.80
2023-03-14T17:43:37.040Z,24.30
2023-03-14T17:46:38.956Z,29.90
2023-03-14T17:49:40.737Z,29.50
2023-03-14T17:52:42.815Z,34.30
2023-03-14T17:55:44.584Z,33.00
2023-03-14T17:58:46.133Z,37.40
2023-03-14T18:01:48.089Z,36.90
2023-03-14T18:04:50.421Z,34.60
2023-03-14T18:07:52.247Z,35.10
2023-03-14T18:10:54.398Z,32.20
2023-03-14T18:13:56.061Z,32.50
2023-03-14T18:19:59.023Z,34.20
2023-03-14T18:29:04.042Z,32.30
2023-03-14T18:32:05.976Z,31.80
2023-03-14T18:35:08.126Z,30.70
2023-03-14T18:38:09.653Z,34.80
2023-03-14T18:41:13.414Z,32.40
2023-03-14T18:44:15.130Z,32.50
2023-03-14T18:47:16.906Z,36.70
2023-03-14T18:50:18.735Z,38.90
2023-03-14T18:53:20.496Z,42.50
2023-03-14T18:56:22.555Z,43.80
2023-03-14T18:59:24.081Z,42.30
2023-03-14T19:02:26.111Z,41.10
2023-03-14T19:05:27.765Z,45.00
2023-03-14T19:08:29.464Z,50.50
2023-03-14T19:11:30.999Z,53.00
2023-03-14T19:14:32.636Z,50.20
2023-03-14T19:17:34.355Z,47.90
2023-03-14T19:20:36.224Z,46.10
2023-03-14T19:23:40.280Z,39.90
2023-03-14T19:26:41.951Z,43.10
2023-03-14T19:29:44.658Z,43.10
2023-03-14T19:32:46.301Z,40.80
2023-03-14T19:35:48.388Z,42.30
2023-03-14T19:38:51.056Z,37.10
2023-03-14T19:41:52.657Z,40.00
2023-03-14T19:44:54.342Z,40.50
2023-03-14T19:47:55.913Z,42.30
2023-03-14T19:54:03.692Z,43.40
2023-03-14T19:57:05.388Z,51.60
2023-03-14T20:00:07.964Z,60.30
2023-03-14T20:03:09.709Z,61.00
2023-03-14T20:06:12.246Z,62.00
2023-03-14T20:09:13.854Z,62.50
2023-03-14T20:15:17.325Z,55.10
2023-03-14T20:18:18.911Z,58.40
2023-03-14T20:21:20.978Z,60.00
2023-03-14T20:24:22.821Z,56.70
2023-03-14T20:27:25.309Z,59.70
2023-03-14T20:33:31.521Z,51.80
2023-03-14T20:36:33.227Z,55.30
2023-03-14T20:39:35.825Z,56.10
2023-03-14T20:42:38.640Z,47.40
2023-03-14T20:45:43.203Z,45.50
2023-03-14T20:48:44.814Z,43.80
2023-03-14T20:51:47.557Z,43.30
2023-03-14T20:54:49.532Z,41.80
2023-03-14T20:57:51.058Z,49.20
2023-03-14T21:03:54.367Z,46.80
2023-03-14T21:06:55.924Z,45.50
2023-03-14T21:09:57.443Z,46.80
2023-03-14T21:16:01.700Z,46.50
2023-03-14T21:19:03.281Z,39.90
2023-03-14T21:25:08.545Z,41.90
2023-03-14T21:28:10.142Z,45.20
2023-03-14T21:31:12.416Z,41.80
2023-03-14T21:34:14.268Z,50.60
2023-03-14T21:37:16.774Z,62.10
2023-03-14T21:40:18.431Z,64.60
2023-03-14T21:46:21.525Z,68.60
2023-03-14T21:49:23.081Z,49.40
2023-03-14T21:52:25.994Z,44.90
2023-03-14T21:58:29.038Z,40.10
2023-03-14T22:01:30.779Z,45.10
2023-03-14T22:04:33.554Z,39.80
2023-03-14T22:07:35.125Z,42.00
2023-03-14T22:13:38.420Z,44.10
2023-03-14T22:16:40.114Z,38.20
2023-03-14T22:22:43.187Z,36.90
2023-03-14T22:28:48.102Z,38.50
2023-03-14T22:34:51.319Z,32.10
2023-03-14T22:40:54.488Z,28.40
2023-03-14T22:46:57.576Z,28.90
2023-03-14T22:53:00.576Z,26.40
2023-03-14T22:59:04.089Z,25.00
2023-03-14T23:02:05.553Z,22.70
2023-03-14T23:05:27.188Z,21.50
2023-03-14T23:08:28.723Z,19.80
2023-03-14T23:14:31.667Z,17.70
2023-03-14T23:23:37.182Z,13.80
2023-03-14T23:26:38.786Z,11.60
2023-03-14T23:29:40.454Z,13.60
2023-03-14T23:32:42.949Z,12.70
2023-03-14T23:35:44.585Z,10.70
2023-03-14T23:38:46.461Z,9.50
2023-03-14T23:41:47.998Z,10.00
2023-03-14T23:44:49.706Z,13.60
2023-03-14T23:47:51.348Z,11.80
2023-03-14T23:50:56.404Z,10.80
2023-03-14T23:53:57.962Z,11.30
2023-03-14T23:56:59.533Z,9.80
